Overseas New York — WGEH — position and weather

sailwx.info

Track history (hours):
 
Tides and Currents Weather Stations Pressure Air Temp Water Temp Dewpoint Dewpoint Depression Visibility Wind Speed Wind Dir Waves Ship Positions

Overseas New York

Owner: ASC Leasing IV, Inc., Philadlephia, PA. More information available from US FCC via Universal Licensing System and Coast Guard Vessel Documentation Center.

Last reported at 2017-Oct-14 14:06 UTC. Time now 2017-Oct-19 16:57 UTC.
Position N 29°35' W 093°43'.

Length 183 m; draft 8.4 m.

Type: Tanker. MMSI: 367381000.

Date/timePositionNaut miles runAvg speedWind from/ knotsBaromVisibWave heightAir tempDewpointWater temp
2017-Oct-14 14:06N 29°35' W 093°43'0 0.1
2017-Oct-14 13:57N 29°35' W 093°43'  
2017-Oct-11 18:57N 25°13' W 080°05'612.5
2017-Oct-11 18:30N 25°19' W 080°03'612.3
2017-Oct-11 18:00N 25°24' W 080°01'612.2
2017-Oct-11 17:30N 25°30' W 080°01'611.9
2017-Oct-11 17:00N 25°36' W 080°01'30 1.7
2017-Oct-10 23:51N 26°05' W 080°07'0 0.0
2017-Oct-10 23:24N 26°05' W 080°07'0 0.0
2017-Oct-10 22:48N 26°05' W 080°07'0 0.0
2017-Oct-10 22:24N 26°05' W 080°07'0 0.0
2017-Oct-10 21:54N 26°05' W 080°07'0 0.0
2017-Oct-10 21:24N 26°05' W 080°07'0 0.0
2017-Oct-10 20:54N 26°05' W 080°07'0 0.0
2017-Oct-10 20:27N 26°05' W 080°07'0 0.0
2017-Oct-10 19:57N 26°05' W 080°07'0 0.0
2017-Oct-10 19:27N 26°05' W 080°07'0 0.0
2017-Oct-10 18:57N 26°05' W 080°07'0 0.0
2017-Oct-10 18:27N 26°05' W 080°07'0 0.0
2017-Oct-09 18:33N 26°05' W 080°07'0 0.6
2017-Oct-09 18:30N 26°05' W 080°07'1 1.1
2017-Oct-09 18:00N 26°06' W 080°07'4 8.6
2017-Oct-09 17:31N 26°07' W 080°02'4 4.1
2017-Oct-09 16:29N 26°03' W 080°00'613.3
2017-Oct-09 16:00N 25°56' W 079°59'815.5
2017-Oct-09 15:30N 25°49' W 079°59'815.5
2017-Oct-09 15:01N 25°41' W 079°59'816.4
2017-Oct-09 14:30N 25°33' W 079°59'917.4
2017-Oct-09 14:00N 25°24' W 079°59'  
2017-Oct-05 23:55N 29°24' W 094°49'410.4
2017-Oct-05 23:30N 29°27' W 094°51'510.4
2017-Oct-05 23:00N 29°32' W 094°54'510.8
2017-Oct-05 22:30N 29°36' W 094°57'510.1
2017-Oct-05 22:00N 29°41' W 094°59'4 7.6
2017-Oct-05 21:30N 29°44' W 095°02'3 6.5
2017-Oct-05 21:00N 29°46' W 095°05'3 5.0
2017-Oct-05 20:30N 29°44' W 095°08'  
Track history (hours):
 
Tides and Currents Weather Stations Pressure Air Temp Water Temp Dewpoint Dewpoint Depression Visibility Wind Speed Wind Dir Waves Ship Positions

Overseas New York

Owner: ASC Leasing IV, Inc., Philadlephia, PA. More information available from US FCC via Universal Licensing System and Coast Guard Vessel Documentation Center.

Last reported at 2017-Oct-14 14:06 UTC. Time now 2017-Oct-19 16:57 UTC.
Position N 29°35' W 093°43'.

Length 183 m; draft 8.4 m.

Type: Tanker. MMSI: 367381000.

Date/timePositionNaut miles runAvg speedWind from/ knotsBaromVisibWave heightAir tempDewpointWater temp
2017-Oct-14 14:06N 29°35' W 093°43'0 0.1
2017-Oct-14 13:57N 29°35' W 093°43'  
2017-Oct-11 18:57N 25°13' W 080°05'612.5
2017-Oct-11 18:30N 25°19' W 080°03'612.3
2017-Oct-11 18:00N 25°24' W 080°01'612.2
2017-Oct-11 17:30N 25°30' W 080°01'611.9
2017-Oct-11 17:00N 25°36' W 080°01'30 1.7
2017-Oct-10 23:51N 26°05' W 080°07'0 0.0
2017-Oct-10 23:24N 26°05' W 080°07'0 0.0
2017-Oct-10 22:48N 26°05' W 080°07'0 0.0
2017-Oct-10 22:24N 26°05' W 080°07'0 0.0
2017-Oct-10 21:54N 26°05' W 080°07'0 0.0
2017-Oct-10 21:24N 26°05' W 080°07'0 0.0
2017-Oct-10 20:54N 26°05' W 080°07'0 0.0
2017-Oct-10 20:27N 26°05' W 080°07'0 0.0
2017-Oct-10 19:57N 26°05' W 080°07'0 0.0
2017-Oct-10 19:27N 26°05' W 080°07'0 0.0
2017-Oct-10 18:57N 26°05' W 080°07'0 0.0
2017-Oct-10 18:27N 26°05' W 080°07'0 0.0
2017-Oct-09 18:33N 26°05' W 080°07'0 0.6
2017-Oct-09 18:30N 26°05' W 080°07'1 1.1
2017-Oct-09 18:00N 26°06' W 080°07'4 8.6
2017-Oct-09 17:31N 26°07' W 080°02'4 4.1
2017-Oct-09 16:29N 26°03' W 080°00'613.3
2017-Oct-09 16:00N 25°56' W 079°59'815.5
2017-Oct-09 15:30N 25°49' W 079°59'815.5
2017-Oct-09 15:01N 25°41' W 079°59'816.4
2017-Oct-09 14:30N 25°33' W 079°59'917.4
2017-Oct-09 14:00N 25°24' W 079°59'  
2017-Oct-05 23:55N 29°24' W 094°49'410.4
2017-Oct-05 23:30N 29°27' W 094°51'510.4
2017-Oct-05 23:00N 29°32' W 094°54'510.8
2017-Oct-05 22:30N 29°36' W 094°57'510.1
2017-Oct-05 22:00N 29°41' W 094°59'4 7.6
2017-Oct-05 21:30N 29°44' W 095°02'3 6.5
2017-Oct-05 21:00N 29°46' W 095°05'3 5.0
2017-Oct-05 20:30N 29°44' W 095°08'  

Dump ship's entire track history